createdAt,value
2018-03-29T00:00:54.184Z,104.80
2018-03-29T00:01:54.076Z,83.10
2018-03-29T00:02:54.086Z,82.70
2018-03-29T00:03:54.206Z,73.40
2018-03-29T00:04:54.119Z,84.90
2018-03-29T00:05:54.262Z,80.30
2018-03-29T00:06:54.149Z,114.10
2018-03-29T00:07:54.296Z,103.40
2018-03-29T00:08:54.286Z,113.80
2018-03-29T00:09:54.206Z,99.70
2018-03-29T00:10:54.343Z,126.80
2018-03-29T00:11:54.365Z,136.20
2018-03-29T00:12:54.375Z,132.60
2018-03-29T00:13:54.420Z,141.70
2018-03-29T00:14:54.407Z,136.20
2018-03-29T00:15:54.305Z,114.60
2018-03-29T00:16:54.369Z,104.40
2018-03-29T00:17:54.457Z,114.40
2018-03-29T00:18:54.577Z,130.20
2018-03-29T00:19:54.362Z,128.80
2018-03-29T00:20:54.375Z,123.10
2018-03-29T00:21:54.394Z,143.00
2018-03-29T00:22:54.539Z,151.90
2018-03-29T00:23:54.429Z,124.00
2018-03-29T00:24:54.597Z,140.90
2018-03-29T00:25:54.452Z,124.80
2018-03-29T00:26:54.605Z,100.50
2018-03-29T00:27:54.620Z,103.80
2018-03-29T00:28:54.509Z,99.00
2018-03-29T00:29:54.652Z,94.20
2018-03-29T00:30:54.870Z,93.80
2018-03-29T00:31:54.683Z,96.60
2018-03-29T00:32:54.583Z,120.40
2018-03-29T00:33:54.588Z,99.80
2018-03-29T00:34:54.617Z,132.00
2018-03-29T00:35:54.903Z,135.10
2018-03-29T00:36:54.764Z,128.30
2018-03-29T00:37:54.784Z,113.60
2018-03-29T00:38:54.797Z,85.30
2018-03-29T00:39:54.814Z,93.00
2018-03-29T00:40:54.861Z,125.00
2018-03-29T00:41:54.723Z,116.40
2018-03-29T00:42:54.864Z,132.90
2018-03-29T00:43:54.877Z,132.10
2018-03-29T00:44:54.896Z,171.40
2018-03-29T00:45:54.913Z,190.20
2018-03-29T00:46:55.083Z,147.60
2018-03-29T00:47:54.944Z,95.20
2018-03-29T00:48:54.959Z,120.10
2018-03-29T00:49:54.847Z,96.40
2018-03-29T00:50:54.866Z,94.70
2018-03-29T00:51:55.110Z,105.10
2018-03-29T00:52:54.899Z,119.00
2018-03-29T00:53:54.921Z,148.50
2018-03-29T00:54:54.933Z,142.50
2018-03-29T00:55:54.954Z,103.20
2018-03-29T00:56:55.058Z,122.10
2018-03-29T00:57:54.988Z,98.80
2018-03-29T00:58:55.000Z,112.50
2018-03-29T00:59:55.140Z,133.30
2018-03-29T01:00:55.160Z,133.30
2018-03-29T01:01:55.256Z,129.20
2018-03-29T01:02:55.187Z,116.60
2018-03-29T01:03:55.206Z,105.30
2018-03-29T01:04:55.224Z,102.40
2018-03-29T01:05:55.241Z,99.40
2018-03-29T01:06:55.353Z,109.30
2018-03-29T01:07:55.145Z,120.30
2018-03-29T01:08:55.287Z,113.50
2018-03-29T01:09:55.310Z,139.90
2018-03-29T01:10:55.200Z,105.10
2018-03-29T01:11:55.357Z,83.90
2018-03-29T01:12:55.229Z,94.10
2018-03-29T01:13:55.372Z,96.20
2018-03-29T01:14:55.383Z,77.80
2018-03-29T01:15:55.280Z,108.40
2018-03-29T01:16:55.399Z,97.90
2018-03-29T01:17:55.300Z,87.70
2018-03-29T01:18:55.450Z,84.20
2018-03-29T01:19:55.346Z,108.50
2018-03-29T01:20:55.355Z,143.20
2018-03-29T01:21:55.480Z,126.20
2018-03-29T01:22:55.515Z,106.10
2018-03-29T01:23:55.533Z,125.60
2018-03-29T01:24:55.420Z,112.80
2018-03-29T01:25:55.436Z,93.40
2018-03-29T01:26:55.681Z,123.10
2018-03-29T01:27:55.598Z,126.30
2018-03-29T01:28:55.616Z,118.80
2018-03-29T01:29:55.633Z,117.70
2018-03-29T01:30:55.644Z,150.70
2018-03-29T01:31:55.642Z,143.10
2018-03-29T01:32:55.679Z,127.30
2018-03-29T01:33:55.575Z,151.10
2018-03-29T01:34:55.586Z,139.20
2018-03-29T01:35:55.729Z,165.80
2018-03-29T01:36:55.845Z,211.20
2018-03-29T01:37:55.633Z,161.40
2018-03-29T01:38:55.650Z,186.30
2018-03-29T01:39:55.663Z,155.50
2018-03-29T01:40:55.686Z,162.00
2018-03-29T01:41:55.980Z,132.00
2018-03-29T01:42:55.840Z,118.60
2018-03-29T01:43:55.736Z,145.20
2018-03-29T01:44:55.749Z,111.10
2018-03-29T01:45:55.888Z,90.30
2018-03-29T01:46:56.005Z,112.80
2018-03-29T01:47:55.799Z,147.10
2018-03-29T01:48:55.938Z,131.90
2018-03-29T01:49:55.831Z,123.70
2018-03-29T01:50:55.973Z,137.40
2018-03-29T01:51:55.960Z,112.90
2018-03-29T01:52:56.003Z,157.60
2018-03-29T01:53:55.893Z,179.70
2018-03-29T01:54:56.038Z,176.60
2018-03-29T01:55:55.928Z,132.40
2018-03-29T01:56:56.100Z,110.60
2018-03-29T01:57:55.961Z,102.30
2018-03-29T01:58:56.110Z,80.70
2018-03-29T01:59:55.995Z,81.90
2018-03-29T02:00:56.199Z,85.20
2018-03-29T02:01:56.125Z,83.50
2018-03-29T02:02:56.048Z,91.20
2018-03-29T02:03:56.184Z,76.40
2018-03-29T02:04:56.073Z,81.50
2018-03-29T02:05:56.214Z,84.10
2018-03-29T02:06:56.382Z,81.00
2018-03-29T02:07:56.250Z,92.40
2018-03-29T02:08:56.265Z,70.40
2018-03-29T02:09:56.283Z,115.10
2018-03-29T02:10:56.171Z,136.60
2018-03-29T02:11:56.294Z,109.40
2018-03-29T02:12:56.206Z,124.50
2018-03-29T02:13:56.233Z,132.10
2018-03-29T02:14:56.361Z,123.00
2018-03-29T02:15:56.378Z,90.00
2018-03-29T02:16:56.365Z,84.10
2018-03-29T02:17:56.413Z,80.10
2018-03-29T02:18:56.426Z,85.60
2018-03-29T02:19:56.443Z,73.00
2018-03-29T02:20:56.333Z,93.60
2018-03-29T02:21:56.457Z,87.90
2018-03-29T02:22:56.493Z,133.70
2018-03-29T02:23:56.384Z,105.90
2018-03-29T02:24:56.525Z,129.20
2018-03-29T02:25:56.414Z,131.40
2018-03-29T02:26:56.557Z,120.20
2018-03-29T02:27:56.547Z,125.60
2018-03-29T02:28:56.592Z,117.50
2018-03-29T02:29:56.477Z,105.00
2018-03-29T02:30:56.500Z,106.70
2018-03-29T02:31:56.646Z,130.90
2018-03-29T02:32:56.754Z,169.40
2018-03-29T02:33:56.673Z,139.50
2018-03-29T02:34:56.565Z,133.60
2018-03-29T02:35:56.579Z,149.10
2018-03-29T02:36:56.651Z,127.00
2018-03-29T02:37:56.838Z,132.50
2018-03-29T02:38:56.632Z,137.70
2018-03-29T02:39:56.768Z,139.70
2018-03-29T02:40:56.656Z,137.70
2018-03-29T02:41:56.800Z,122.60
2018-03-29T02:42:56.692Z,138.80
2018-03-29T02:43:56.988Z,144.00
2018-03-29T02:44:56.848Z,159.30
2018-03-29T02:45:56.738Z,133.50
2018-03-29T02:46:56.752Z,118.90
2018-03-29T02:47:56.896Z,138.60
2018-03-29T02:48:56.915Z,130.20
2018-03-29T02:49:57.025Z,119.30
2018-03-29T02:50:56.945Z,141.90
2018-03-29T02:51:56.834Z,165.80
2018-03-29T02:52:56.858Z,192.20
2018-03-29T02:53:56.866Z,191.20
2018-03-29T02:54:57.109Z,186.30
2018-03-29T02:55:57.024Z,170.80
2018-03-29T02:56:56.917Z,145.30
2018-03-29T02:57:57.055Z,139.50
2018-03-29T02:58:56.944Z,173.20
2018-03-29T02:59:57.070Z,193.00
2018-03-29T03:00:57.104Z,202.20
2018-03-29T03:01:56.998Z,211.50
2018-03-29T03:02:57.134Z,182.00
2018-03-29T03:03:57.153Z,176.10
2018-03-29T03:04:57.192Z,164.70
2018-03-29T03:05:57.185Z,155.80
2018-03-29T03:06:57.203Z,175.40
2018-03-29T03:07:57.097Z,220.50
2018-03-29T03:08:57.104Z,175.20
2018-03-29T03:09:57.230Z,181.40
2018-03-29T03:10:57.143Z,191.30
2018-03-29T03:11:57.153Z,167.90
2018-03-29T03:12:57.176Z,187.10
2018-03-29T03:13:57.184Z,204.80
2018-03-29T03:14:57.426Z,143.10
2018-03-29T03:15:57.216Z,171.90
2018-03-29T03:16:57.236Z,172.00
2018-03-29T03:17:57.372Z,160.50
2018-03-29T03:18:57.395Z,172.20
2018-03-29T03:19:57.429Z,133.10
2018-03-29T03:20:57.303Z,126.80
2018-03-29T03:21:57.309Z,161.90
2018-03-29T03:22:57.455Z,143.80
2018-03-29T03:23:57.469Z,168.00
2018-03-29T03:24:57.641Z,155.00
2018-03-29T03:25:57.371Z,150.00
2018-03-29T03:26:57.387Z,181.10
2018-03-29T03:27:57.535Z,201.40
2018-03-29T03:28:57.549Z,141.80
2018-03-29T03:29:57.671Z,160.20
2018-03-29T03:30:57.581Z,151.20
2018-03-29T03:31:57.477Z,180.00
2018-03-29T03:32:57.613Z,169.60
2018-03-29T03:33:57.509Z,178.00
2018-03-29T03:34:57.672Z,178.80
2018-03-29T03:35:57.661Z,209.50
2018-03-29T03:36:57.549Z,198.30
2018-03-29T03:37:57.565Z,181.10
2018-03-29T03:38:57.580Z,230.20
2018-03-29T03:39:57.751Z,277.10
2018-03-29T03:40:57.611Z,275.20
2018-03-29T03:41:57.757Z,255.10
2018-03-29T03:42:57.772Z,244.20
2018-03-29T03:43:57.788Z,238.40
2018-03-29T03:44:57.680Z,248.60
2018-03-29T03:45:57.790Z,221.30
2018-03-29T03:46:57.836Z,269.50
2018-03-29T03:47:57.860Z,237.50
2018-03-29T03:48:57.746Z,250.30
2018-03-29T03:49:57.756Z,265.80
2018-03-29T03:50:58.048Z,245.90
2018-03-29T03:51:57.783Z,239.30
2018-03-29T03:52:57.821Z,214.60
2018-03-29T03:53:57.947Z,216.80
2018-03-29T03:54:57.959Z,228.40
2018-03-29T03:55:58.127Z,221.00
2018-03-29T03:56:57.866Z,194.60
2018-03-29T03:57:57.888Z,177.00
2018-03-29T03:58:57.898Z,187.00
2018-03-29T03:59:58.040Z,213.10
2018-03-29T04:00:58.083Z,199.20
2018-03-29T04:01:58.072Z,194.00
2018-03-29T04:02:57.974Z,214.40
2018-03-29T04:03:58.103Z,186.00
2018-03-29T04:04:58.123Z,186.00
2018-03-29T04:05:58.236Z,176.30
2018-03-29T04:06:58.153Z,179.30
2018-03-29T04:07:58.170Z,185.40
2018-03-29T04:08:58.189Z,202.80
2018-03-29T04:09:58.200Z,205.60
2018-03-29T04:10:58.241Z,198.00
2018-03-29T04:11:58.105Z,208.80
2018-03-29T04:12:58.249Z,193.20
2018-03-29T04:13:58.138Z,171.40
2018-03-29T04:14:58.162Z,181.60
2018-03-29T04:15:58.279Z,191.20
2018-03-29T04:16:58.315Z,169.10
2018-03-29T04:17:58.209Z,168.40
2018-03-29T04:18:58.348Z,155.90
2018-03-29T04:19:58.270Z,155.60
2018-03-29T04:20:58.401Z,140.60
2018-03-29T04:21:58.258Z,147.80
2018-03-29T04:22:58.407Z,163.50
2018-03-29T04:23:58.307Z,145.00
2018-03-29T04:24:58.443Z,146.30
2018-03-29T04:25:58.610Z,159.40
2018-03-29T04:26:58.347Z,143.90
2018-03-29T04:27:58.361Z,147.70
2018-03-29T04:28:58.379Z,136.60
2018-03-29T04:29:58.394Z,147.30
2018-03-29T04:30:58.560Z,147.00
2018-03-29T04:31:58.555Z,152.70
2018-03-29T04:32:58.572Z,143.60
2018-03-29T04:33:58.455Z,149.90
2018-03-29T04:34:58.475Z,152.70
2018-03-29T04:35:58.493Z,162.30
2018-03-29T04:36:58.605Z,158.10
2018-03-29T04:37:58.650Z,157.50
2018-03-29T04:38:58.538Z,155.80
2018-03-29T04:39:58.683Z,148.20
2018-03-29T04:40:58.569Z,153.80
2018-03-29T04:41:58.585Z,142.80
2018-03-29T04:42:58.828Z,147.60
2018-03-29T04:43:58.745Z,154.10
2018-03-29T04:44:58.634Z,146.40
2018-03-29T04:45:58.780Z,153.30
2018-03-29T04:46:58.674Z,151.90
2018-03-29T04:47:58.959Z,161.00
2018-03-29T04:48:58.826Z,155.20
2018-03-29T04:49:58.714Z,147.30
2018-03-29T04:50:58.860Z,158.50
2018-03-29T04:51:58.873Z,137.30
2018-03-29T04:52:58.914Z,135.70
2018-03-29T04:53:58.904Z,148.10
2018-03-29T04:54:58.794Z,146.60
2018-03-29T04:55:58.812Z,117.60
2018-03-29T04:56:58.957Z,133.20
2018-03-29T04:57:58.843Z,134.10
2018-03-29T04:58:59.010Z,116.30
2018-03-29T04:59:58.875Z,113.50
2018-03-29T05:00:58.897Z,96.90
2018-03-29T05:01:58.910Z,96.00
2018-03-29T05:02:58.925Z,102.70
2018-03-29T05:03:59.095Z,86.90
2018-03-29T05:04:59.084Z,74.70
2018-03-29T05:05:59.104Z,103.20
2018-03-29T05:06:59.114Z,86.40
2018-03-29T05:07:59.004Z,81.20
2018-03-29T05:08:59.250Z,94.50
2018-03-29T05:09:59.037Z,90.90
2018-03-29T05:10:59.050Z,87.00
2018-03-29T05:11:59.198Z,68.60
2018-03-29T05:12:59.084Z,66.60
2018-03-29T05:13:59.327Z,87.00
2018-03-29T05:14:59.246Z,75.30
2018-03-29T05:15:59.262Z,65.90
2018-03-29T05:16:59.275Z,67.10
2018-03-29T05:17:59.292Z,69.70
2018-03-29T05:18:59.282Z,73.20
2018-03-29T05:19:59.324Z,76.60
2018-03-29T05:20:59.343Z,73.80
2018-03-29T05:21:59.356Z,88.50
2018-03-29T05:22:59.245Z,81.60
2018-03-29T05:23:59.361Z,77.10
2018-03-29T05:24:59.277Z,79.40
2018-03-29T05:25:59.422Z,82.20
2018-03-29T05:26:59.435Z,76.10
2018-03-29T05:27:59.327Z,96.50
2018-03-29T05:28:59.569Z,76.10
2018-03-29T05:29:59.354Z,84.80
2018-03-29T05:31:59.519Z,74.00
2018-03-29T05:32:59.533Z,80.50
2018-03-29T05:33:59.653Z,81.00
2018-03-29T05:34:59.565Z,82.40
2018-03-29T05:35:59.458Z,68.50
2018-03-29T05:36:59.471Z,86.30
2018-03-29T05:37:59.613Z,79.00
2018-03-29T05:38:59.620Z,88.60
2018-03-29T05:39:59.523Z,66.40
2018-03-29T05:40:59.540Z,67.00
2018-03-29T05:41:59.677Z,79.90
2018-03-29T05:42:59.696Z,71.80
2018-03-29T05:43:59.810Z,72.00
2018-03-29T05:44:59.726Z,71.40
2018-03-29T05:45:59.745Z,69.20
2018-03-29T05:46:59.707Z,81.20
2018-03-29T05:47:59.782Z,68.80
2018-03-29T05:48:59.792Z,77.60
2018-03-29T05:49:59.784Z,77.50
2018-03-29T05:50:59.822Z,62.30
2018-03-29T05:51:59.714Z,71.40
2018-03-29T05:52:59.731Z,69.50
2018-03-29T05:53:59.745Z,86.40
2018-03-29T05:54:59.989Z,78.00
2018-03-29T05:55:59.906Z,76.20
2018-03-29T05:56:59.792Z,67.90
2018-03-29T05:57:59.810Z,89.60
2018-03-29T05:58:59.825Z,89.70
2018-03-29T05:59:59.944Z,85.20
2018-03-29T06:00:59.985Z,95.30
2018-03-29T06:01:59.999Z,83.90
2018-03-29T06:02:59.922Z,81.00
2018-03-29T06:04:00.035Z,79.10
2018-03-29T06:05:00.199Z,94.10
2018-03-29T06:05:59.937Z,81.50
2018-03-29T06:06:59.948Z,82.70
2018-03-29T06:07:59.971Z,90.80
2018-03-29T06:09:00.116Z,94.60
2018-03-29T06:10:00.230Z,92.90
2018-03-29T06:11:00.184Z,86.40
2018-03-29T06:12:00.033Z,86.60
2018-03-29T06:13:00.049Z,92.60
2018-03-29T06:14:00.196Z,100.60
2018-03-29T06:15:00.181Z,95.20
2018-03-29T06:16:00.111Z,101.50
2018-03-29T06:17:00.130Z,103.20
2018-03-29T06:18:00.137Z,105.40
2018-03-29T06:19:00.271Z,121.40
2018-03-29T06:20:00.260Z,108.00
2018-03-29T06:21:00.177Z,105.20
2018-03-29T06:22:00.191Z,137.40
2018-03-29T06:23:00.212Z,121.20
2018-03-29T06:24:00.228Z,131.60
2018-03-29T06:25:00.467Z,110.10
2018-03-29T06:26:00.384Z,112.40
2018-03-29T06:27:00.270Z,119.00
2018-03-29T06:28:00.294Z,118.20
2018-03-29T06:29:00.429Z,105.80
2018-03-29T06:30:00.427Z,108.60
2018-03-29T06:31:00.335Z,109.80
2018-03-29T06:32:00.479Z,136.00
2018-03-29T06:33:00.366Z,130.90
2018-03-29T06:34:00.383Z,135.10
2018-03-29T06:35:00.499Z,110.30
2018-03-29T06:36:00.427Z,108.00
2018-03-29T06:37:00.559Z,119.30
2018-03-29T06:38:00.460Z,114.50
2018-03-29T06:39:00.589Z,126.80
2018-03-29T06:40:00.704Z,112.60
2018-03-29T06:41:00.494Z,122.90
2018-03-29T06:42:00.514Z,141.30
2018-03-29T06:43:00.533Z,126.40
2018-03-29T06:44:00.666Z,134.10
2018-03-29T06:45:00.662Z,112.90
2018-03-29T06:46:00.698Z,134.20
2018-03-29T06:47:00.634Z,115.90
2018-03-29T06:48:00.729Z,121.20
2018-03-29T06:49:00.617Z,125.10
2018-03-29T06:50:00.910Z,107.50
2018-03-29T06:51:00.779Z,119.50
2018-03-29T06:52:00.795Z,140.60
2018-03-29T06:53:00.681Z,143.80
2018-03-29T06:54:00.704Z,107.40
2018-03-29T06:55:00.863Z,129.40
2018-03-29T06:56:00.730Z,125.40
2018-03-29T06:57:00.745Z,135.70
2018-03-29T06:58:00.762Z,144.00
2018-03-29T06:59:00.777Z,145.10
2018-03-29T07:00:00.893Z,143.00
2018-03-29T07:01:00.836Z,160.80
2018-03-29T07:02:00.824Z,152.20
2018-03-29T07:03:00.839Z,129.90
2018-03-29T07:04:00.986Z,160.30
2018-03-29T07:05:01.030Z,159.50
2018-03-29T07:06:00.888Z,148.50
2018-03-29T07:07:00.902Z,142.90
2018-03-29T07:08:00.920Z,127.30
2018-03-29T07:09:00.936Z,116.80
2018-03-29T07:10:01.104Z,122.10
2018-03-29T07:11:00.967Z,130.50
2018-03-29T07:12:01.110Z,131.50
2018-03-29T07:13:01.007Z,130.40
2018-03-29T07:14:01.140Z,126.80
2018-03-29T07:15:01.132Z,141.40
2018-03-29T07:16:01.050Z,150.20
2018-03-29T07:17:01.062Z,115.30
2018-03-29T07:18:01.082Z,137.50
2018-03-29T07:19:01.094Z,130.00
2018-03-29T07:20:01.224Z,157.80
2018-03-29T07:21:01.258Z,154.60
2018-03-29T07:22:01.266Z,196.30
2018-03-29T07:23:01.283Z,171.50
2018-03-29T07:24:01.186Z,176.30
2018-03-29T07:25:01.294Z,159.00
2018-03-29T07:26:01.331Z,156.60
2018-03-29T07:27:01.221Z,138.30
2018-03-29T07:28:01.365Z,135.90
2018-03-29T07:29:01.265Z,169.90
2018-03-29T07:30:01.418Z,212.70
2018-03-29T07:31:01.283Z,238.30
2018-03-29T07:32:01.427Z,246.50
2018-03-29T07:33:01.320Z,231.80
2018-03-29T07:34:01.343Z,189.30
2018-03-29T07:35:01.461Z,230.50
2018-03-29T07:36:01.492Z,207.70
2018-03-29T07:37:01.507Z,254.00
2018-03-29T07:38:01.524Z,259.80
2018-03-29T07:39:01.538Z,252.10
2018-03-29T07:40:01.523Z,244.60
2018-03-29T07:41:01.458Z,220.50
2018-03-29T07:42:01.585Z,214.40
2018-03-29T07:43:01.504Z,270.90
2018-03-29T07:44:01.485Z,236.30
2018-03-29T07:45:01.623Z,225.10
2018-03-29T07:46:01.648Z,245.30
2018-03-29T07:47:01.663Z,248.10
2018-03-29T07:48:01.555Z,265.60
2018-03-29T07:49:01.699Z,231.40
2018-03-29T07:50:01.686Z,246.30
2018-03-29T07:51:01.602Z,223.90
2018-03-29T07:52:01.618Z,244.80
2018-03-29T07:53:01.636Z,272.70
2018-03-29T07:54:01.662Z,263.90
2018-03-29T07:55:01.817Z,244.50
2018-03-29T07:56:01.683Z,249.10
2018-03-29T07:57:01.696Z,264.50
2018-03-29T07:58:01.711Z,282.70
2018-03-29T07:59:01.727Z,273.30
2018-03-29T08:00:01.744Z,277.80
2018-03-29T08:01:01.990Z,250.50
2018-03-29T08:02:01.772Z,266.70
2018-03-29T08:03:01.790Z,288.90
2018-03-29T08:04:01.805Z,289.60
2018-03-29T08:05:01.950Z,233.10
2018-03-29T08:06:01.940Z,234.70
2018-03-29T08:07:01.852Z,230.80
2018-03-29T08:08:01.878Z,250.80
2018-03-29T08:09:02.015Z,314.20
2018-03-29T08:10:02.038Z,299.30
2018-03-29T08:11:02.067Z,305.60
2018-03-29T08:12:01.932Z,261.20
2018-03-29T08:13:01.948Z,266.40
2018-03-29T08:14:02.090Z,271.40
2018-03-29T08:15:02.108Z,238.50
2018-03-29T08:16:02.277Z,209.70
2018-03-29T08:17:02.140Z,242.90
2018-03-29T08:18:02.031Z,286.80
2018-03-29T08:19:02.048Z,242.00
2018-03-29T08:20:02.188Z,261.80
2018-03-29T08:21:02.353Z,238.70
2018-03-29T08:22:02.088Z,254.60
2018-03-29T08:23:02.104Z,276.20
2018-03-29T08:24:02.121Z,326.60
2018-03-29T08:25:02.145Z,277.80
2018-03-29T08:26:02.316Z,259.40
2018-03-29T08:27:02.295Z,274.70
2018-03-29T08:28:02.311Z,287.50
2018-03-29T08:29:02.328Z,257.00
2018-03-29T08:30:02.342Z,247.10
2018-03-29T08:31:02.459Z,294.40
2018-03-29T08:32:02.248Z,323.10
2018-03-29T08:33:02.398Z,293.50
2018-03-29T08:34:02.281Z,314.20
2018-03-29T08:35:02.291Z,238.20
2018-03-29T08:36:02.455Z,251.70
2018-03-29T08:37:02.452Z,298.50
2018-03-29T08:38:02.339Z,307.30
2018-03-29T08:39:02.359Z,304.40
2018-03-29T08:40:02.373Z,273.20
2018-03-29T08:41:02.532Z,272.40
2018-03-29T08:42:02.413Z,249.70
2018-03-29T08:43:02.425Z,282.50
2018-03-29T08:44:02.436Z,211.10
2018-03-29T08:45:02.449Z,213.10
2018-03-29T08:46:02.572Z,234.90
2018-03-29T08:47:02.604Z,191.40
2018-03-29T08:48:02.643Z,221.90
2018-03-29T08:49:02.512Z,192.10
2018-03-29T08:50:02.525Z,210.50
2018-03-29T08:51:02.540Z,271.10
2018-03-29T08:52:02.682Z,237.10
2018-03-29T08:53:02.572Z,223.50
2018-03-29T08:54:02.589Z,217.00
2018-03-29T08:55:02.603Z,214.70
2018-03-29T08:56:02.744Z,250.30
2018-03-29T08:57:02.737Z,204.50
2018-03-29T08:58:02.664Z,197.60
2018-03-29T08:59:02.667Z,214.30
2018-03-29T09:00:02.809Z,216.60
2018-03-29T09:01:02.698Z,230.90
2018-03-29T09:02:02.938Z,213.40
2018-03-29T09:03:02.900Z,228.80
2018-03-29T09:04:02.869Z,259.70
2018-03-29T09:05:02.771Z,242.70
2018-03-29T09:06:02.903Z,258.60
2018-03-29T09:07:02.927Z,250.80
2018-03-29T09:08:03.087Z,294.30
2018-03-29T09:09:02.838Z,262.40
2018-03-29T09:10:02.840Z,280.80
2018-03-29T09:11:02.851Z,275.20
2018-03-29T09:12:02.881Z,294.20
2018-03-29T09:13:02.894Z,273.50
2018-03-29T09:14:03.049Z,241.90
2018-03-29T09:15:02.914Z,218.70
2018-03-29T09:16:03.055Z,228.30
2018-03-29T09:17:03.070Z,248.30
2018-03-29T09:18:02.973Z,260.30
2018-03-29T09:19:03.131Z,286.50
2018-03-29T09:20:03.119Z,313.80
2018-03-29T09:21:03.034Z,400.50
2018-03-29T09:22:03.036Z,394.90
2018-03-29T09:23:03.169Z,327.20
2018-03-29T09:24:03.152Z,304.70
2018-03-29T09:25:03.062Z,333.00
2018-03-29T09:26:03.088Z,331.20
2018-03-29T09:27:03.231Z,279.30
2018-03-29T09:28:03.114Z,328.40
2018-03-29T09:29:03.367Z,276.00
2018-03-29T09:30:03.277Z,245.50
2018-03-29T09:31:03.290Z,272.70
2018-03-29T09:32:03.187Z,262.90
2018-03-29T09:33:03.195Z,387.20
2018-03-29T09:34:03.435Z,410.00
2018-03-29T09:35:03.226Z,393.30
2018-03-29T09:36:03.246Z,420.80
2018-03-29T09:37:03.259Z,371.40
2018-03-29T09:38:03.277Z,368.50
2018-03-29T09:39:03.438Z,351.60
2018-03-29T09:40:03.305Z,328.20
2018-03-29T09:41:03.320Z,273.60
2018-03-29T09:42:03.336Z,241.80
2018-03-29T09:43:03.480Z,275.40
2018-03-29T09:44:03.468Z,211.70
2018-03-29T09:45:03.519Z,210.30
2018-03-29T09:46:03.412Z,223.70
2018-03-29T09:47:03.544Z,211.80
2018-03-29T09:48:03.435Z,210.30
2018-03-29T09:49:03.455Z,215.70
2018-03-29T09:50:03.612Z,225.70
2018-03-29T09:51:03.478Z,237.30
2018-03-29T09:52:03.496Z,200.40
2018-03-29T09:53:03.641Z,201.20
2018-03-29T09:54:03.654Z,182.10
2018-03-29T09:55:03.696Z,164.80
2018-03-29T09:56:03.560Z,153.50
2018-03-29T09:57:03.575Z,176.90
2018-03-29T09:58:03.607Z,172.40
2018-03-29T09:59:03.613Z,167.30
2018-03-29T10:00:03.903Z,153.20
2018-03-29T10:01:03.655Z,159.60
2018-03-29T10:02:03.672Z,172.30
2018-03-29T10:03:03.689Z,163.20
2018-03-29T10:04:03.693Z,153.50
2018-03-29T10:05:03.813Z,139.10
2018-03-29T10:06:03.724Z,126.60
2018-03-29T10:07:03.744Z,146.20
2018-03-29T10:08:03.754Z,130.40
2018-03-29T10:09:03.789Z,138.80
2018-03-29T10:10:03.898Z,144.80
2018-03-29T10:11:03.820Z,132.20
2018-03-29T10:12:03.828Z,143.90
2018-03-29T10:13:03.856Z,120.80
2018-03-29T10:14:03.986Z,120.80
2018-03-29T10:15:03.991Z,107.40
2018-03-29T10:16:03.897Z,116.40
2018-03-29T10:17:03.916Z,112.40
2018-03-29T10:18:04.051Z,108.60
2018-03-29T10:19:03.953Z,110.30
2018-03-29T10:20:04.056Z,102.50
2018-03-29T10:21:03.986Z,103.90
2018-03-29T10:22:03.996Z,106.30
2018-03-29T10:23:04.023Z,97.80
2018-03-29T10:24:04.039Z,97.00
2018-03-29T10:25:04.146Z,93.10
2018-03-29T10:26:04.075Z,89.00
2018-03-29T10:27:04.085Z,102.10
2018-03-29T10:28:04.097Z,99.30
2018-03-29T10:29:04.126Z,99.40
2018-03-29T10:30:04.233Z,101.30
2018-03-29T10:31:04.272Z,97.50
2018-03-29T10:32:04.289Z,85.20
2018-03-29T10:33:04.200Z,88.00
2018-03-29T10:34:04.200Z,74.80
2018-03-29T10:35:04.447Z,77.40
2018-03-29T10:36:04.246Z,70.00
2018-03-29T10:37:04.266Z,63.00
2018-03-29T10:38:04.265Z,59.90
2018-03-29T10:39:04.413Z,64.80
2018-03-29T10:40:04.410Z,56.80
2018-03-29T10:41:04.385Z,64.00
2018-03-29T10:42:04.350Z,59.30
2018-03-29T10:43:04.481Z,52.40
2018-03-29T10:44:04.376Z,55.80
2018-03-29T10:45:04.670Z,53.60
2018-03-29T10:46:04.407Z,51.40
2018-03-29T10:47:04.441Z,51.10
2018-03-29T10:48:04.452Z,50.60
2018-03-29T10:49:04.461Z,51.80
2018-03-29T10:50:04.579Z,46.00
2018-03-29T10:51:04.627Z,43.50
2018-03-29T10:52:04.524Z,44.30
2018-03-29T10:53:04.662Z,46.70
2018-03-29T10:54:04.681Z,39.00
2018-03-29T10:55:04.678Z,39.60
2018-03-29T10:56:04.598Z,39.00
2018-03-29T10:57:04.609Z,38.80
2018-03-29T10:58:04.784Z,37.00
2018-03-29T10:59:04.649Z,35.40
2018-03-29T11:00:04.760Z,35.60
2018-03-29T11:01:04.679Z,34.50
2018-03-29T11:02:04.825Z,35.40
2018-03-29T11:03:04.843Z,36.00
2018-03-29T11:04:04.748Z,35.30
2018-03-29T11:05:04.852Z,34.50
2018-03-29T11:06:04.903Z,33.90
2018-03-29T11:07:04.918Z,35.70
2018-03-29T11:08:04.935Z,35.20
2018-03-29T11:09:04.828Z,35.00
2018-03-29T11:10:04.846Z,34.60
2018-03-29T11:11:05.142Z,35.90
2018-03-29T11:12:05.012Z,36.00
2018-03-29T11:13:04.906Z,37.40
2018-03-29T11:14:04.934Z,37.30
2018-03-29T11:15:05.064Z,35.80
2018-03-29T11:16:05.057Z,38.00
2018-03-29T11:17:04.977Z,39.20
2018-03-29T11:18:05.124Z,36.90
2018-03-29T11:19:05.020Z,37.20
2018-03-29T11:20:05.033Z,37.20
2018-03-29T11:21:05.154Z,35.40
2018-03-29T11:22:05.202Z,37.10
2018-03-29T11:23:05.089Z,36.10
2018-03-29T11:24:05.107Z,35.80
2018-03-29T11:25:05.262Z,35.60
2018-03-29T11:26:05.253Z,35.60
2018-03-29T11:27:05.166Z,36.90
2018-03-29T11:28:05.185Z,36.40
2018-03-29T11:29:05.208Z,35.20
2018-03-29T11:30:05.233Z,36.40
2018-03-29T11:31:05.471Z,36.70
2018-03-29T11:32:05.264Z,36.70
2018-03-29T11:33:05.409Z,37.70
2018-03-29T11:34:05.322Z,37.00
2018-03-29T11:35:05.452Z,36.80
2018-03-29T11:36:05.490Z,37.10
2018-03-29T11:37:05.485Z,36.20
2018-03-29T11:38:05.392Z,37.50
2018-03-29T11:39:05.395Z,38.00
2018-03-29T11:40:05.416Z,38.20
2018-03-29T11:41:05.567Z,36.60
2018-03-29T11:42:05.558Z,36.80
2018-03-29T11:43:05.482Z,37.90
2018-03-29T11:44:05.621Z,36.10
2018-03-29T11:45:05.523Z,38.50
2018-03-29T11:46:05.554Z,37.60
2018-03-29T11:47:05.655Z,36.80
2018-03-29T11:48:05.572Z,36.00
2018-03-29T11:49:05.722Z,36.90
2018-03-29T11:50:05.625Z,35.10
2018-03-29T11:51:05.643Z,36.70
2018-03-29T11:52:05.879Z,34.50
2018-03-29T11:53:05.674Z,34.90
2018-03-29T11:54:05.818Z,35.70
2018-03-29T11:55:05.722Z,32.40
2018-03-29T11:56:05.766Z,32.90
2018-03-29T11:57:05.859Z,31.00
2018-03-29T11:58:05.788Z,30.60
2018-03-29T11:59:05.922Z,30.30
2018-03-29T12:00:05.806Z,29.80
2018-03-29T12:01:05.960Z,31.40
2018-03-29T12:02:06.079Z,30.90
2018-03-29T12:03:06.001Z,30.90
2018-03-29T12:04:06.021Z,31.70
2018-03-29T12:05:05.968Z,30.60
2018-03-29T12:06:05.933Z,30.50
2018-03-29T12:07:06.185Z,30.90
2018-03-29T12:08:05.982Z,30.90
2018-03-29T12:09:06.124Z,32.00
2018-03-29T12:10:06.146Z,33.70
2018-03-29T12:11:06.036Z,32.60
2018-03-29T12:12:06.269Z,33.80
2018-03-29T12:13:06.081Z,33.60
2018-03-29T12:14:06.234Z,33.00
2018-03-29T12:15:06.147Z,33.20
2018-03-29T12:16:06.141Z,33.40
2018-03-29T12:17:06.163Z,34.30
2018-03-29T12:18:06.331Z,33.20
2018-03-29T12:19:06.328Z,32.40
2018-03-29T12:20:06.352Z,31.90
2018-03-29T12:21:06.374Z,29.50
2018-03-29T12:22:06.264Z,30.70
2018-03-29T12:23:06.382Z,29.30
2018-03-29T12:24:06.434Z,29.50
2018-03-29T12:25:06.328Z,29.50
2018-03-29T12:26:06.363Z,28.10
2018-03-29T12:27:06.375Z,28.90
2018-03-29T12:28:06.507Z,29.00
2018-03-29T12:29:06.413Z,25.70
2018-03-29T12:30:06.449Z,26.30
2018-03-29T12:31:06.586Z,27.70
2018-03-29T12:32:06.606Z,28.00
2018-03-29T12:33:06.614Z,28.80
2018-03-29T12:34:06.529Z,28.60
2018-03-29T12:35:06.545Z,28.40
2018-03-29T12:36:06.578Z,28.70
2018-03-29T12:37:06.591Z,29.00
2018-03-29T12:38:06.885Z,28.10